Time,TemperatureF,DewpointF,PressureIn,WindDirection,WindDirectionDegrees,WindSpeedMPH,WindSpeedGustMPH,Humidity,HourlyPrecipIn,Conditions,Clouds,dailyrainin,SoftwareType,DateUTC
2013-09-06 00:09:00,59.0,47.7,29.95,NNE,22,0.0,-999.0,66,-99.99,,,0.00,Acu-Link.com,2013-09-06 07:09:00,
2013-09-06 00:24:00,59.0,47.7,29.96,ENE,67,0.0,-999.0,66,-99.99,,,0.00,Acu-Link.com,2013-09-06 07:24:00,
2013-09-06 00:39:00,57.2,46.3,29.96,NNW,337,0.0,-999.0,67,-99.99,,,0.00,Acu-Link.com,2013-09-06 07:39:00,
2013-09-06 00:54:00,55.4,45.4,29.97,SE,135,0.0,-999.0,69,-99.99,,,0.00,Acu-Link.com,2013-09-06 07:54:00,
2013-09-06 01:09:00,55.4,46.5,29.96,NE,45,0.0,-999.0,72,-99.99,,,0.00,Acu-Link.com,2013-09-06 08:09:00,
2013-09-06 01:25:00,55.4,46.5,29.96,NNE,22,0.0,-999.0,72,-99.99,,,0.00,Acu-Link.com,2013-09-06 08:25:00,
2013-09-06 01:40:00,55.4,47.3,29.97,SE,135,0.0,-999.0,74,-99.99,,,0.00,Acu-Link.com,2013-09-06 08:40:00,
2013-09-06 01:55:00,53.6,45.5,29.96,North,0,0.0,-999.0,74,-99.99,,,0.00,Acu-Link.com,2013-09-06 08:55:00,
2013-09-06 02:10:00,53.6,45.9,29.96,NE,45,0.0,-999.0,75,-99.99,,,0.00,Acu-Link.com,2013-09-06 09:10:00,
2013-09-06 02:25:00,53.6,46.2,29.95,East,90,0.0,-999.0,76,-99.99,,,0.00,Acu-Link.com,2013-09-06 09:25:00,
2013-09-06 02:40:00,53.6,47.2,29.95,ESE,112,0.0,-999.0,79,-99.99,,,0.00,Acu-Link.com,2013-09-06 09:40:00,
2013-09-06 02:55:00,51.8,45.5,29.96,South,180,0.0,-999.0,79,-99.99,,,0.00,Acu-Link.com,2013-09-06 09:55:00,
2013-09-06 03:10:00,51.8,46.5,29.95,ESE,112,0.0,-999.0,82,-99.99,,,0.00,Acu-Link.com,2013-09-06 10:10:00,
2013-09-06 03:25:00,51.8,46.5,29.96,NE,45,0.0,-999.0,82,-99.99,,,0.00,Acu-Link.com,2013-09-06 10:25:00,
2013-09-06 03:40:00,51.8,46.8,29.96,ENE,67,0.0,-999.0,83,-99.99,,,0.00,Acu-Link.com,2013-09-06 10:40:00,
2013-09-06 03:55:00,51.8,46.8,29.96,NNE,22,0.0,-999.0,83,-99.99,,,0.00,Acu-Link.com,2013-09-06 10:55:00,
2013-09-06 04:10:00,51.8,46.8,29.96,East,90,0.0,-999.0,83,-99.99,,,0.00,Acu-Link.com,2013-09-06 11:10:00,
2013-09-06 04:25:00,51.8,46.8,29.95,NE,45,0.0,-999.0,83,-99.99,,,0.00,Acu-Link.com,2013-09-06 11:25:00,
2013-09-06 04:40:00,51.8,46.8,29.96,North,0,0.0,-999.0,83,-99.99,,,0.00,Acu-Link.com,2013-09-06 11:40:00,
2013-09-06 04:55:00,50.0,45.0,29.96,ENE,67,0.0,-999.0,83,-99.99,,,0.00,Acu-Link.com,2013-09-06 11:55:00,
2013-09-06 05:10:00,50.0,45.4,29.96,NE,45,0.0,-999.0,84,-99.99,,,0.00,Acu-Link.com,2013-09-06 12:10:00,
2013-09-06 05:26:00,50.0,45.4,29.96,NE,45,0.0,-999.0,84,-99.99,,,0.00,Acu-Link.com,2013-09-06 12:26:00,
2013-09-06 05:41:00,50.0,45.7,29.96,ENE,67,0.0,-999.0,85,-99.99,,,0.00,Acu-Link.com,2013-09-06 12:41:00,
2013-09-06 05:56:00,50.0,46.0,29.96,ENE,67,0.0,-999.0,86,-99.99,,,0.00,Acu-Link.com,2013-09-06 12:56:00,
2013-09-06 06:11:00,50.0,46.0,29.95,NE,45,0.0,-999.0,86,-99.99,,,0.00,Acu-Link.com,2013-09-06 13:11:00,
2013-09-06 06:26:00,50.0,46.3,29.96,NE,45,0.0,-999.0,87,-99.99,,,0.00,Acu-Link.com,2013-09-06 13:26:00,
2013-09-06 06:41:00,50.0,46.3,29.96,NE,45,0.0,-999.0,87,-99.99,,,0.00,Acu-Link.com,2013-09-06 13:41:00,
2013-09-06 06:57:00,50.0,46.3,29.96,NE,45,0.0,-999.0,87,-99.99,,,0.00,Acu-Link.com,2013-09-06 13:57:00,
2013-09-06 07:12:00,50.0,46.3,29.96,NNE,22,0.0,-999.0,87,-99.99,,,0.00,Acu-Link.com,2013-09-06 14:12:00,
2013-09-06 07:27:00,51.8,48.1,29.96,ESE,112,0.0,-999.0,87,-99.99,,,0.00,Acu-Link.com,2013-09-06 14:27:00,
2013-09-06 07:42:00,51.8,48.1,29.98,NNE,22,0.0,-999.0,87,-99.99,,,0.00,Acu-Link.com,2013-09-06 14:42:00,
2013-09-06 07:57:00,51.8,47.7,29.99,NE,45,0.0,-999.0,86,-99.99,,,0.00,Acu-Link.com,2013-09-06 14:57:00,
2013-09-06 08:12:00,53.6,49.5,29.99,East,90,0.0,-999.0,86,-99.99,,,0.00,Acu-Link.com,2013-09-06 15:12:00,
2013-09-06 08:28:00,53.6,48.9,29.99,NE,45,0.0,-999.0,84,-99.99,,,0.00,Acu-Link.com,2013-09-06 15:28:00,
2013-09-06 08:43:00,55.4,49.7,29.99,ENE,67,0.0,-999.0,81,-99.99,,,0.00,Acu-Link.com,2013-09-06 15:43:00,
2013-09-06 08:58:00,55.4,49.3,29.99,NE,45,0.0,-999.0,80,-99.99,,,0.00,Acu-Link.com,2013-09-06 15:58:00,
2013-09-06 09:13:00,55.4,49.0,30.00,West,270,0.0,-999.0,79,-99.99,,,0.00,Acu-Link.com,2013-09-06 16:13:00,
2013-09-06 09:28:00,55.4,49.0,30.00,NNW,337,0.0,-999.0,79,-99.99,,,0.00,Acu-Link.com,2013-09-06 16:28:00,
2013-09-06 09:43:00,55.4,49.3,30.00,NE,45,0.0,-999.0,80,-99.99,,,0.00,Acu-Link.com,2013-09-06 16:43:00,
2013-09-06 09:59:00,59.0,52.1,30.01,West,270,0.0,-999.0,78,-99.99,,,0.00,Acu-Link.com,2013-09-06 16:59:00,
2013-09-06 10:14:00,59.0,50.7,30.01,NNE,22,0.0,-999.0,74,-99.99,,,0.00,Acu-Link.com,2013-09-06 17:14:00,
2013-09-06 10:29:00,60.8,51.7,30.01,NW,315,0.0,-999.0,72,-99.99,,,0.00,Acu-Link.com,2013-09-06 17:29:00,
2013-09-06 10:44:00,60.8,51.3,30.01,NNE,22,0.0,-999.0,71,-99.99,,,0.00,Acu-Link.com,2013-09-06 17:44:00,
2013-09-06 10:59:00,60.8,51.3,30.00,NE,45,0.0,-999.0,71,-99.99,,,0.00,Acu-Link.com,2013-09-06 17:59:00,
2013-09-06 11:14:00,62.6,52.3,30.00,WNW,292,0.0,-999.0,69,-99.99,,,0.00,Acu-Link.com,2013-09-06 18:14:00,
2013-09-06 11:30:00,62.6,52.3,30.00,NW,315,0.0,-999.0,69,-99.99,,,0.00,Acu-Link.com,2013-09-06 18:30:00,
2013-09-06 11:45:00,62.6,51.9,30.00,West,270,0.0,-999.0,68,-99.99,,,0.00,Acu-Link.com,2013-09-06 18:45:00,
2013-09-06 12:00:00,62.6,51.1,30.00,WNW,292,0.0,-999.0,66,-99.99,,,0.00,Acu-Link.com,2013-09-06 19:00:00,
2013-09-06 12:15:00,62.6,51.9,29.99,NNE,22,0.0,-999.0,68,-99.99,,,0.00,Acu-Link.com,2013-09-06 19:15:00,
2013-09-06 12:30:00,62.6,51.5,29.99,SW,225,0.0,-999.0,67,-99.99,,,0.00,Acu-Link.com,2013-09-06 19:30:00,
2013-09-06 12:45:00,62.6,51.9,29.99,ENE,67,0.0,-999.0,68,-99.99,,,0.00,Acu-Link.com,2013-09-06 19:45:00,
2013-09-06 13:01:00,62.6,51.5,29.99,NNW,337,0.0,-999.0,67,-99.99,,,0.00,Acu-Link.com,2013-09-06 20:01:00,
2013-09-06 13:16:00,62.6,51.5,29.99,NE,45,0.0,-999.0,67,-99.99,,,0.00,Acu-Link.com,2013-09-06 20:16:00,
2013-09-06 13:31:00,64.4,53.2,29.98,East,90,0.0,-999.0,67,-99.99,,,0.00,Acu-Link.com,2013-09-06 20:31:00,
2013-09-06 13:46:00,64.4,52.8,29.98,ENE,67,0.0,-999.0,66,-99.99,,,0.00,Acu-Link.com,2013-09-06 20:46:00,
2013-09-06 14:02:00,64.4,52.0,29.98,NE,45,0.0,-999.0,64,-99.99,,,0.00,Acu-Link.com,2013-09-06 21:02:00,
2013-09-06 14:17:00,64.4,52.4,29.98,West,270,0.0,-999.0,65,-99.99,,,0.00,Acu-Link.com,2013-09-06 21:17:00,
2013-09-06 14:32:00,64.4,51.5,29.99,WSW,247,0.0,-999.0,63,-99.99,,,0.00,Acu-Link.com,2013-09-06 21:32:00,
2013-09-06 14:47:00,66.2,52.8,29.99,South,180,0.0,-999.0,62,-99.99,,,0.00,Acu-Link.com,2013-09-06 21:47:00,
2013-09-06 15:02:00,68.0,53.6,29.98,South,180,0.0,-999.0,60,-99.99,,,0.00,Acu-Link.com,2013-09-06 22:02:00,
2013-09-06 15:17:00,68.0,54.5,29.98,WSW,247,0.0,-999.0,62,-99.99,,,0.00,Acu-Link.com,2013-09-06 22:17:00,
2013-09-06 15:32:00,66.2,53.7,29.98,SE,135,0.0,-999.0,64,-99.99,,,0.00,Acu-Link.com,2013-09-06 22:32:00,
2013-09-06 15:47:00,66.2,54.1,29.98,SSE,157,0.0,-999.0,65,-99.99,,,0.00,Acu-Link.com,2013-09-06 22:47:00,
2013-09-06 16:02:00,64.4,52.8,29.98,East,90,0.0,-999.0,66,-99.99,,,0.00,Acu-Link.com,2013-09-06 23:02:00,
2013-09-06 16:17:00,66.2,54.9,29.98,SSE,157,0.0,-999.0,67,-99.99,,,0.00,Acu-Link.com,2013-09-06 23:17:00,
2013-09-06 16:32:00,66.2,54.9,29.97,NE,45,0.0,-999.0,67,-99.99,,,0.00,Acu-Link.com,2013-09-06 23:32:00,
2013-09-06 16:48:00,66.2,54.5,29.97,WSW,247,0.0,-999.0,66,-99.99,,,0.00,Acu-Link.com,2013-09-06 23:48:00,
2013-09-06 17:03:00,66.2,54.5,29.96,WSW,247,0.0,-999.0,66,-99.99,,,0.00,Acu-Link.com,2013-09-07 00:03:00,
2013-09-06 17:18:00,68.0,55.4,29.97,South,180,0.0,-999.0,64,-99.99,,,0.00,Acu-Link.com,2013-09-07 00:18:00,
2013-09-06 17:33:00,68.0,56.6,29.97,SSE,157,0.0,-999.0,67,-99.99,,,0.00,Acu-Link.com,2013-09-07 00:33:00,
2013-09-06 17:48:00,69.8,56.6,29.97,WSW,247,0.0,-999.0,63,-99.99,,,0.00,Acu-Link.com,2013-09-07 00:48:00,
2013-09-06 18:03:00,71.6,56.5,29.97,West,270,0.0,-999.0,59,-99.99,,,0.00,Acu-Link.com,2013-09-07 01:03:00,
2013-09-06 18:18:00,71.6,56.0,29.97,WSW,247,0.0,-999.0,58,-99.99,,,0.00,Acu-Link.com,2013-09-07 01:18:00,
2013-09-06 18:33:00,69.8,56.6,29.97,East,90,0.0,-999.0,63,-99.99,,,0.00,Acu-Link.com,2013-09-07 01:33:00,
2013-09-06 18:48:00,68.0,56.2,29.97,NE,45,0.0,-999.0,66,-99.99,,,0.00,Acu-Link.com,2013-09-07 01:48:00,
2013-09-06 19:03:00,66.2,56.1,29.97,NE,45,0.0,-999.0,70,-99.99,,,0.00,Acu-Link.com,2013-09-07 02:03:00,
2013-09-06 19:19:00,64.4,55.2,29.96,NE,45,0.0,-999.0,72,-99.99,,,0.00,Acu-Link.com,2013-09-07 02:19:00,
2013-09-06 19:34:00,62.6,54.6,29.96,NE,45,0.0,-999.0,75,-99.99,,,0.00,Acu-Link.com,2013-09-07 02:34:00,
2013-09-06 19:49:00,62.6,55.3,29.96,NE,45,0.0,-999.0,77,-99.99,,,0.00,Acu-Link.com,2013-09-07 02:49:00,
2013-09-06 20:04:00,60.8,53.9,29.96,NNE,22,0.0,-999.0,78,-99.99,,,0.00,Acu-Link.com,2013-09-07 03:04:00,
2013-09-06 20:19:00,60.8,54.2,29.96,NE,45,0.0,-999.0,79,-99.99,,,0.00,Acu-Link.com,2013-09-07 03:19:00,
2013-09-06 20:34:00,60.8,54.6,29.97,NNE,22,0.0,-999.0,80,-99.99,,,0.00,Acu-Link.com,2013-09-07 03:34:00,
2013-09-06 20:49:00,59.0,53.2,29.96,NNE,22,0.0,-999.0,81,-99.99,,,0.00,Acu-Link.com,2013-09-07 03:49:00,
2013-09-06 21:04:00,59.0,53.5,29.96,NE,45,0.0,-999.0,82,-99.99,,,0.00,Acu-Link.com,2013-09-07 04:04:00,
2013-09-06 21:19:00,59.0,53.8,29.96,ENE,67,0.0,-999.0,83,-99.99,,,0.00,Acu-Link.com,2013-09-07 04:19:00,
2013-09-06 21:34:00,59.0,54.2,29.96,NNE,22,0.0,-999.0,84,-99.99,,,0.00,Acu-Link.com,2013-09-07 04:34:00,
2013-09-06 21:50:00,57.2,52.4,29.96,NNE,22,0.0,-999.0,84,-99.99,,,0.00,Acu-Link.com,2013-09-07 04:50:00,
2013-09-06 22:05:00,57.2,52.7,29.96,NNW,337,0.0,-999.0,85,-99.99,,,0.00,Acu-Link.com,2013-09-07 05:05:00,
2013-09-06 22:20:00,57.2,52.7,29.97,NW,315,0.0,-999.0,85,-99.99,,,0.00,Acu-Link.com,2013-09-07 05:20:00,
2013-09-06 22:35:00,59.0,54.8,29.98,ESE,112,0.0,-999.0,86,-99.99,,,0.00,Acu-Link.com,2013-09-07 05:35:00,
2013-09-06 22:50:00,59.0,54.8,29.99,ESE,112,0.0,-999.0,86,-99.99,,,0.00,Acu-Link.com,2013-09-07 05:50:00,
2013-09-06 23:05:00,57.2,54.0,30.00,ENE,67,0.0,-999.0,89,-99.99,,,0.00,Acu-Link.com,2013-09-07 06:05:00,
2013-09-06 23:20:00,57.2,54.3,30.01,ESE,112,0.0,-999.0,90,-99.99,,,0.01,Acu-Link.com,2013-09-07 06:20:00,
2013-09-06 23:35:00,55.4,54.8,30.01,ESE,112,0.0,-999.0,98,-99.99,,,0.01,Acu-Link.com,2013-09-07 06:35:00,
2013-09-06 23:50:00,55.4,54.8,30.02,ESE,112,0.0,-999.0,98,-99.99,,,0.01,Acu-Link.com,2013-09-07 06:50:00,